Resolve — WDD7117 — position and weather

sailwx.info

Track history (hours):
 
Tides and Currents Weather Stations Pressure Air Temp Water Temp Dewpoint Dewpoint Depression Visibility Wind Speed Wind Dir Waves Ship Positions

Resolve

Owner: Intrepid Ship Management, jacksonville, FL. More information available from US FCC via Universal Licensing System and Coast Guard Vessel Documentation Center.

Last reported at 2018-Jan-18 14:08 UTC. Time now 2018-Jan-24 05:52 UTC.
Position N 25°36' W 080°02'.

Length 209 m; draft 7.2 m.

Type: Towing. MMSI: 367336000.

Date/timePositionNaut miles runAvg speedWind from/ knotsBaromVisibWave heightAir tempDewpointWater temp
2018-Jan-18 14:08N 25°36' W 080°02'211.0
2018-Jan-18 13:59N 25°38' W 080°01'511.2
2018-Jan-18 13:30N 25°44' W 080°01'611.6
2018-Jan-18 12:59N 25°49' W 080°00'611.6
2018-Jan-18 12:30N 25°55' W 079°59'611.0
2018-Jan-18 12:00N 26°01' W 079°59'510.6
2018-Jan-18 11:30N 26°06' W 079°58'510.8
2018-Jan-18 11:00N 26°11' W 079°58'611.1
2018-Jan-18 10:27N 26°17' W 079°57'3510.5
2018-Jan-18 07:05N 26°53' W 079°58'110.1
2018-Jan-18 06:59N 26°54' W 079°58'510.6
2018-Jan-18 06:30N 26°59' W 079°59'  
2018-Jan-10 01:31N 27°03' W 090°28'012.1
2018-Jan-10 01:30N 27°03' W 090°28'612.2
2018-Jan-10 01:00N 27°05' W 090°34'612.0
2018-Jan-10 00:30N 27°08' W 090°41'611.8
2018-Jan-09 23:59N 27°10' W 090°47'612.0
2018-Jan-09 23:29N 27°13' W 090°53'611.8
2018-Jan-09 23:00N 27°15' W 090°59'611.9
2018-Jan-09 22:30N 27°18' W 091°05'611.9
2018-Jan-09 21:59N 27°20' W 091°11'  
Track history (hours):
 
Tides and Currents Weather Stations Pressure Air Temp Water Temp Dewpoint Dewpoint Depression Visibility Wind Speed Wind Dir Waves Ship Positions

Resolve

Owner: Intrepid Ship Management, jacksonville, FL. More information available from US FCC via Universal Licensing System and Coast Guard Vessel Documentation Center.

Last reported at 2018-Jan-18 14:08 UTC. Time now 2018-Jan-24 05:52 UTC.
Position N 25°36' W 080°02'.

Length 209 m; draft 7.2 m.

Type: Towing. MMSI: 367336000.

Date/timePositionNaut miles runAvg speedWind from/ knotsBaromVisibWave heightAir tempDewpointWater temp
2018-Jan-18 14:08N 25°36' W 080°02'211.0
2018-Jan-18 13:59N 25°38' W 080°01'511.2
2018-Jan-18 13:30N 25°44' W 080°01'611.6
2018-Jan-18 12:59N 25°49' W 080°00'611.6
2018-Jan-18 12:30N 25°55' W 079°59'611.0
2018-Jan-18 12:00N 26°01' W 079°59'510.6
2018-Jan-18 11:30N 26°06' W 079°58'510.8
2018-Jan-18 11:00N 26°11' W 079°58'611.1
2018-Jan-18 10:27N 26°17' W 079°57'3510.5
2018-Jan-18 07:05N 26°53' W 079°58'110.1
2018-Jan-18 06:59N 26°54' W 079°58'510.6
2018-Jan-18 06:30N 26°59' W 079°59'  
2018-Jan-10 01:31N 27°03' W 090°28'012.1
2018-Jan-10 01:30N 27°03' W 090°28'612.2
2018-Jan-10 01:00N 27°05' W 090°34'612.0
2018-Jan-10 00:30N 27°08' W 090°41'611.8
2018-Jan-09 23:59N 27°10' W 090°47'612.0
2018-Jan-09 23:29N 27°13' W 090°53'611.8
2018-Jan-09 23:00N 27°15' W 090°59'611.9
2018-Jan-09 22:30N 27°18' W 091°05'611.9
2018-Jan-09 21:59N 27°20' W 091°11'  

Dump ship's entire track history